Terminal Aerodrome Forecast
Issued by NWS

Home | Current Version | Previous Version | Text Only | Print | Product List | Glossary On
Versions: 1 2 3 4 5 6 7 8 9 10 11 12 13 14 15 16
000
FTUS46 KMTR 040500
TAFMRY
TAF
KMRY 040533Z 0406/0506 25005KT P6SM BKN015
     FM041000 VRB03KT P6SM OVC015
     FM041800 29005KT P6SM SCT020
     FM042000 29008KT P6SM SKC
     FM050400 25005KT P6SM BKN015=

USA.gov is the U.S. government's official web portal to all federal, state and local government web resources and services.